Time;durP1;ratioP1;P1;durP2;ratioP2;P2;SDS_P1;SDS_P2;PMS_P1;PMS_P2;Temp;Humidity;BMP_temperature;BMP_pressure;BME280_temperature;BME280_humidity;BME280_pressure;Samples;Min_cycle;Max_cycle;Signal;HPM_P1;HPM_P2
2022/06/09 00:01:55;;;;;;;2.58;2.38;;;14.90;99.90;;;15.48;100.00;97367.09;5223861;28;20228;-59
2022/06/09 00:04:34;;;;;;;2.42;2.22;;;14.70;99.90;;;15.51;100.00;97375.81;5223221;28;20216;-59
2022/06/09 00:07:12;;;;;;;3.20;2.30;;;14.80;99.90;;;15.49;100.00;97374.03;5227138;28;20225;-58
2022/06/09 00:09:51;;;;;;;2.72;2.60;;;14.70;99.90;;;15.46;100.00;97377.38;5228858;28;20254;-58
2022/06/09 00:12:26;;;;;;;2.88;2.67;;;14.70;99.90;;;15.47;100.00;97383.41;5226505;28;20299;-59
2022/06/09 00:15:01;;;;;;;2.65;2.55;;;14.70;99.90;;;15.46;100.00;97379.94;5223771;28;20246;-59
2022/06/09 00:17:34;;;;;;;3.40;2.50;;;14.70;99.90;;;15.48;100.00;97380.88;5221200;28;20301;-58
2022/06/09 00:20:09;;;;;;;2.45;2.25;;;14.80;99.90;;;15.47;100.00;97375.66;5227429;28;20229;-59
2022/06/09 00:22:42;;;;;;;2.28;1.80;;;14.70;99.90;;;15.46;100.00;97374.81;5224452;28;20266;-58
2022/06/09 00:25:16;;;;;;;2.65;2.40;;;14.70;99.90;;;15.49;100.00;97376.59;5223499;28;20248;-59
2022/06/09 00:27:49;;;;;;;2.40;2.20;;;14.70;99.90;;;15.47;100.00;97378.25;5228178;28;20301;-58
2022/06/09 00:30:23;;;;;;;2.45;2.25;;;14.70;99.90;;;15.49;100.00;97379.19;5221654;28;20640;-59
2022/06/09 00:32:56;;;;;;;2.70;2.50;;;14.80;99.90;;;15.45;100.00;97379.91;5223937;28;20284;-59
2022/06/09 00:35:29;;;;;;;2.50;2.40;;;14.80;99.90;;;15.43;100.00;97382.44;5226003;28;20232;-59
2022/06/09 00:38:02;;;;;;;2.90;2.70;;;14.80;99.90;;;15.48;100.00;97390.28;5227575;28;20233;-58
2022/06/09 00:40:37;;;;;;;2.95;2.72;;;14.90;99.90;;;15.51;100.00;97395.56;5223946;28;20539;-59
2022/06/09 00:43:10;;;;;;;2.72;2.50;;;14.80;99.90;;;15.42;100.00;97390.97;5214701;28;20241;-59
2022/06/09 00:45:50;;;;;;;2.92;2.47;;;14.80;99.90;;;15.51;100.00;97387.84;5214721;28;20224;-59
2022/06/09 00:48:38;;;;;;;2.47;2.28;;;14.80;99.90;;;15.52;100.00;97387.00;5223447;28;20214;-59
2022/06/09 00:51:38;;;;;;;2.78;2.60;;;14.80;99.90;;;15.56;100.00;97386.25;5219809;28;20202;-59
2022/06/09 00:54:18;;;;;;;3.63;2.53;;;14.90;99.90;;;15.51;100.00;97391.28;5217665;28;20201;-59
2022/06/09 00:56:56;;;;;;;3.83;3.20;;;14.80;99.90;;;15.46;100.00;97395.41;5218590;28;20213;-59
2022/06/09 00:59:31;;;;;;;2.90;2.70;;;14.90;99.90;;;15.47;100.00;97391.13;5219481;28;20303;-58
2022/06/09 01:02:08;;;;;;;2.78;2.58;;;14.80;99.90;;;15.47;100.00;97398.84;5220934;28;21120;-59
2022/06/09 01:04:42;;;;;;;3.05;2.80;;;14.80;99.90;;;15.42;100.00;97400.41;5219852;28;20232;-59
2022/06/09 01:07:21;;;;;;;3.08;2.83;;;14.80;99.90;;;15.41;100.00;97394.38;5221482;28;20304;-59
2022/06/09 01:09:54;;;;;;;2.83;2.63;;;14.70;99.90;;;15.41;100.00;97394.38;5219442;28;20285;-59
2022/06/09 01:12:33;;;;;;;3.08;2.70;;;14.70;99.90;;;15.33;100.00;97396.72;5222397;28;20292;-59
2022/06/09 01:15:11;;;;;;;2.92;2.72;;;14.70;99.90;;;15.34;100.00;97397.63;5220203;28;20233;-58
2022/06/09 01:17:52;;;;;;;2.95;2.75;;;14.60;99.90;;;15.39;100.00;97405.47;5221430;28;20217;-60
2022/06/09 01:20:37;;;;;;;2.97;2.80;;;14.70;99.90;;;15.41;100.00;97398.66;5222072;28;20217;-60
2022/06/09 01:23:51;;;;;;;3.00;2.63;;;14.70;99.90;;;15.44;100.00;97399.63;5220839;28;20218;-58
2022/06/09 01:27:04;;;;;;;3.40;3.10;;;14.70;99.90;;;15.46;100.00;97407.41;5220476;28;20293;-60
2022/06/09 01:29:45;;;;;;;3.75;3.33;;;14.80;99.90;;;15.48;100.00;97403.16;5224075;28;20235;-60
2022/06/09 01:32:27;;;;;;;3.65;3.38;;;14.80;99.90;;;15.46;100.00;97405.72;5221260;28;20737;-60
2022/06/09 01:35:12;;;;;;;3.55;3.28;;;14.90;99.90;;;15.43;100.00;97399.59;5221564;28;20649;-59
2022/06/09 01:37:48;;;;;;;3.60;3.30;;;14.80;99.90;;;15.38;100.00;97398.59;5214929;28;20225;-58
2022/06/09 01:40:21;;;;;;;3.90;3.50;;;14.80;99.90;;;15.30;100.00;97396.63;5219854;28;20627;-56
2022/06/09 01:42:57;;;;;;;3.33;3.03;;;14.70;99.90;;;15.31;100.00;97398.41;5218216;28;20201;-58
2022/06/09 01:45:50;;;;;;;3.63;3.30;;;14.80;99.90;;;15.28;100.00;97393.16;5221797;28;20673;-56
2022/06/09 01:48:27;;;;;;;3.65;3.30;;;14.70;99.90;;;15.28;100.00;97399.97;5220283;28;20782;-58
2022/06/09 01:51:03;;;;;;;3.65;3.40;;;14.70;99.90;;;15.27;100.00;97404.25;5217153;28;20193;-57
2022/06/09 01:53:41;;;;;;;3.42;2.90;;;14.60;99.90;;;15.22;100.00;97394.63;5223045;28;20584;-55
2022/06/09 01:56:19;;;;;;;3.20;3.00;;;14.60;99.90;;;15.13;100.00;97402.09;5220851;28;20262;-58
2022/06/09 01:58:56;;;;;;;2.85;2.65;;;14.50;99.90;;;15.13;100.00;97402.09;5221339;28;20256;-58
2022/06/09 02:01:34;;;;;;;4.75;3.28;;;14.50;99.90;;;15.17;100.00;97407.38;5220657;28;20194;-58
2022/06/09 02:04:16;;;;;;;3.30;3.00;;;14.60;99.90;;;15.17;100.00;97396.22;5221310;28;20205;-57
2022/06/09 02:06:51;;;;;;;3.55;3.08;;;14.50;99.90;;;15.13;100.00;97396.94;5217917;28;20232;-59
2022/06/09 02:09:27;;;;;;;2.72;2.60;;;14.50;99.90;;;15.15;100.00;97400.44;5220305;28;20747;-59
2022/06/09 02:12:07;;;;;;;2.85;2.65;;;14.50;99.90;;;15.13;100.00;97408.09;5220803;28;20608;-59
2022/06/09 02:14:49;;;;;;;3.50;2.92;;;14.50;99.90;;;15.17;100.00;97403.94;5217390;28;20740;-56
2022/06/09 02:17:22;;;;;;;3.08;2.78;;;14.60;99.90;;;15.22;100.00;97403.25;5220569;28;20270;-58
2022/06/09 02:19:57;;;;;;;5.10;2.90;;;14.60;99.90;;;15.22;100.00;97408.41;5220290;28;20236;-58
2022/06/09 02:22:30;;;;;;;3.13;2.92;;;14.60;99.90;;;15.22;100.00;97412.66;5207106;28;20305;-57
2022/06/09 02:25:04;;;;;;;3.22;2.97;;;14.60;99.90;;;15.22;100.00;97408.41;5220709;28;20236;-58
2022/06/09 02:27:37;;;;;;;2.85;2.65;;;14.60;99.90;;;15.25;100.00;97412.75;5213961;28;20245;-58
2022/06/09 02:30:12;;;;;;;3.30;2.60;;;14.70;99.90;;;15.27;100.00;97411.97;5218960;28;20645;-58
2022/06/09 02:33:05;;;;;;;2.88;2.67;;;14.60;99.90;;;15.31;100.00;97411.28;5221622;28;20687;-58
2022/06/09 02:35:42;;;;;;;2.50;2.40;;;14.70;99.90;;;15.36;100.00;97413.09;5214799;28;20296;-59
2022/06/09 02:38:15;;;;;;;3.90;2.60;;;14.70;99.90;;;15.36;100.00;97413.97;5215897;28;20274;-58
2022/06/09 02:40:49;;;;;;;3.70;2.30;;;14.70;99.90;;;15.32;100.00;97415.59;5218576;28;20299;-58
2022/06/09 02:43:22;;;;;;;2.60;2.50;;;14.70;99.90;;;15.36;100.00;97420.81;5216898;28;20247;-59
2022/06/09 02:45:56;;;;;;;2.45;2.20;;;14.70;99.90;;;15.36;100.00;97421.69;5222643;28;20662;-59
2022/06/09 02:48:29;;;;;;;2.97;2.40;;;14.70;99.90;;;15.36;100.00;97416.53;5219959;28;20221;-59
2022/06/09 02:51:25;;;;;;;3.10;2.47;;;14.80;99.90;;;15.35;100.00;97419.09;5216764;28;20206;-58
2022/06/09 02:54:02;;;;;;;3.60;2.00;;;14.70;99.90;;;15.27;100.00;97417.13;5214568;28;21053;-57
2022/06/09 02:56:35;;;;;;;1.95;1.85;;;14.60;99.90;;;15.30;100.00;97422.38;5221042;28;20645;-56
2022/06/09 02:59:08;;;;;;;2.22;1.75;;;14.60;99.90;;;15.23;100.00;97415.31;5220116;28;20225;-59
2022/06/09 03:01:42;;;;;;;1.98;1.80;;;14.60;99.90;;;15.17;100.00;97433.13;5219831;28;20657;-58
2022/06/09 03:04:15;;;;;;;1.75;1.65;;;14.40;99.90;;;15.12;100.00;97431.25;5219872;28;20201;-58
2022/06/09 03:06:49;;;;;;;1.88;1.73;;;14.50;99.90;;;15.07;100.00;97433.66;5218143;28;20201;-59
2022/06/09 03:09:23;;;;;;;2.03;1.90;;;14.40;99.90;;;15.06;100.00;97440.50;5213154;28;20668;-59
2022/06/09 03:11:56;;;;;;;1.73;1.52;;;14.40;99.90;;;15.06;100.00;97437.06;5220007;28;20225;-60
2022/06/09 03:14:29;;;;;;;2.33;1.83;;;14.40;99.90;;;15.06;100.00;97439.63;5219445;28;20225;-60
2022/06/09 03:17:03;;;;;;;1.85;1.75;;;14.40;99.90;;;15.06;100.00;97449.94;5217328;28;20603;-60
2022/06/09 03:19:38;;;;;;;2.08;1.90;;;14.40;99.90;;;15.08;100.00;97461.16;5221424;28;20688;-59
2022/06/09 03:22:13;;;;;;;1.60;1.50;;;14.40;99.90;;;15.06;100.00;97460.22;5220929;28;20282;-58
2022/06/09 03:24:46;;;;;;;1.67;1.38;;;14.40;99.90;;;15.07;100.00;97467.09;5215077;28;20240;-58
2022/06/09 03:27:19;;;;;;;2.92;1.60;;;14.40;99.90;;;15.05;100.00;97466.19;5220210;28;20266;-55
2022/06/09 03:29:52;;;;;;;2.63;1.70;;;14.40;99.90;;;14.98;100.00;97469.38;5214943;28;20225;-59
2022/06/09 03:32:26;;;;;;;2.10;2.00;;;14.30;99.90;;;15.02;100.00;97466.06;5221393;28;20620;-59
2022/06/09 03:34:59;;;;;;;2.35;1.70;;;14.40;99.90;;;15.04;100.00;97469.59;5212818;28;20297;-59
2022/06/09 03:37:34;;;;;;;1.55;1.55;;;14.40;99.90;;;15.00;100.00;97466.03;5220347;28;20214;-59
2022/06/09 03:40:12;;;;;;;1.60;1.50;;;14.30;99.90;;;15.00;100.00;97483.19;5218462;28;20224;-60
2022/06/09 03:42:46;;;;;;;2.25;1.65;;;14.30;99.90;;;14.92;100.00;97474.34;5219672;28;20197;-59
2022/06/09 03:45:21;;;;;;;1.63;1.50;;;14.30;99.90;;;14.95;100.00;97477.88;5221187;28;20236;-60
2022/06/09 03:47:54;;;;;;;2.13;2.00;;;14.30;99.90;;;15.00;100.00;97478.03;5214798;28;20655;-60
2022/06/09 03:50:30;;;;;;;2.05;1.67;;;14.30;99.90;;;14.98;100.00;97479.69;5217123;28;20232;-61
2022/06/09 03:53:05;;;;;;;2.20;2.00;;;14.30;99.90;;;15.02;100.00;97486.66;5217732;28;20205;-60
2022/06/09 03:55:38;;;;;;;1.80;1.70;;;14.30;99.90;;;15.04;100.00;97492.75;5222026;28;20599;-61
2022/06/09 03:58:11;;;;;;;1.90;1.80;;;14.40;99.90;;;15.03;100.00;97488.44;5216541;28;20229;-61
2022/06/09 04:00:44;;;;;;;2.08;1.98;;;14.40;99.90;;;15.06;100.00;97491.13;5211748;28;20673;-59
2022/06/09 04:03:18;;;;;;;1.80;1.52;;;14.40;99.90;;;14.99;100.00;97494.28;5218062;28;20201;-60
2022/06/09 04:05:51;;;;;;;1.90;1.73;;;14.30;99.90;;;15.04;100.00;97500.47;5220182;28;20209;-61
2022/06/09 04:08:25;;;;;;;1.95;1.85;;;14.40;99.90;;;15.10;100.00;97503.25;5221551;28;20232;-59
2022/06/09 04:10:58;;;;;;;1.90;1.80;;;14.40;99.90;;;15.13;100.00;97499.91;5219735;28;20663;-61
2022/06/09 04:13:31;;;;;;;2.25;1.40;;;14.40;99.90;;;15.08;100.00;97492.91;5218251;28;20198;-61
2022/06/09 04:16:07;;;;;;;1.98;1.88;;;14.40;99.90;;;15.12;100.00;97503.31;5215673;28;20705;-59
2022/06/09 04:18:40;;;;;;;2.40;1.95;;;14.40;99.90;;;15.05;100.00;97507.38;5216743;28;20240;-60
2022/06/09 04:21:14;;;;;;;2.13;1.90;;;14.30;99.90;;;15.01;100.00;97505.53;5223461;28;20673;-61
2022/06/09 04:23:48;;;;;;;1.98;1.88;;;14.30;99.90;;;15.03;100.00;97499.59;5218730;28;20202;-60
2022/06/09 04:26:29;;;;;;;2.08;1.80;;;14.30;99.90;;;15.11;100.00;97507.59;5224104;28;20238;-61
2022/06/09 04:29:04;;;;;;;2.05;1.95;;;14.40;99.90;;;15.15;100.00;97509.44;5216495;28;20241;-61
2022/06/09 04:31:37;;;;;;;2.30;2.20;;;14.50;99.90;;;15.19;100.00;97511.28;5221296;28;20217;-60
2022/06/09 04:34:11;;;;;;;2.28;2.08;;;14.50;99.90;;;15.23;100.00;97513.16;5221690;28;20201;-61
2022/06/09 04:36:44;;;;;;;2.30;2.10;;;14.60;99.90;;;15.22;100.00;97516.56;5221066;28;20589;-61
2022/06/09 04:39:18;;;;;;;2.53;1.92;;;14.50;99.90;;;15.27;100.00;97517.56;5222715;28;20693;-62
2022/06/09 04:41:51;;;;;;;3.80;2.30;;;14.60;99.90;;;15.30;100.00;97517.66;5224058;28;20236;-60
2022/06/09 04:44:25;;;;;;;2.50;2.30;;;14.60;99.90;;;15.36;100.00;97513.53;5218447;28;20202;-61
2022/06/09 04:46:58;;;;;;;2.55;2.35;;;14.60;99.90;;;15.39;100.00;97521.34;5220507;28;20233;-60
2022/06/09 04:49:31;;;;;;;2.15;1.88;;;14.60;99.90;;;15.43;100.00;97524.09;5224698;28;20194;-61
2022/06/09 04:52:04;;;;;;;2.28;1.83;;;14.70;99.90;;;15.41;100.00;97522.28;5224896;28;20204;-60
2022/06/09 04:54:39;;;;;;;3.45;2.00;;;14.60;99.90;;;15.43;100.00;97525.81;5217434;28;20236;-61
2022/06/09 04:57:12;;;;;;;2.50;2.30;;;14.70;99.90;;;15.48;100.00;97524.22;5218712;28;20220;-61
2022/06/09 04:59:45;;;;;;;2.53;2.33;;;14.70;99.90;;;15.47;100.00;97519.91;5216469;28;20228;-60
2022/06/09 05:02:18;;;;;;;3.70;2.50;;;14.70;99.90;;;15.47;100.00;97530.22;5217698;28;20669;-60
2022/06/09 05:04:51;;;;;;;2.35;2.15;;;14.70;99.90;;;15.42;100.00;97540.34;5215781;28;20197;-59
2022/06/09 05:07:25;;;;;;;2.53;2.20;;;14.70;99.90;;;15.42;100.00;97544.63;5225601;28;20316;-60
2022/06/09 05:09:59;;;;;;;3.33;2.55;;;14.80;99.90;;;15.40;100.00;97541.16;5222776;28;20275;-60
2022/06/09 05:12:32;;;;;;;2.60;2.40;;;14.70;99.90;;;15.45;100.00;97547.31;5218590;28;20232;-61
2022/06/09 05:15:13;;;;;;;3.80;2.95;;;14.70;99.90;;;15.53;100.00;97553.59;5212954;28;20204;-60
2022/06/09 05:17:46;;;;;;;2.80;2.60;;;14.80;99.90;;;15.61;100.00;97556.44;5218866;28;20779;-60
2022/06/09 05:20:23;;;;;;;3.70;2.40;;;14.90;99.90;;;15.53;100.00;97564.78;5222913;28;20201;-60
2022/06/09 05:22:56;;;;;;;2.60;2.40;;;14.90;99.90;;;15.63;100.00;97563.38;5222830;28;20201;-61
2022/06/09 05:25:30;;;;;;;3.40;2.40;;;14.90;99.90;;;15.66;100.00;97567.78;5218815;28;20359;-60
2022/06/09 05:28:04;;;;;;;3.50;2.53;;;14.90;99.90;;;15.67;99.89;97562.66;5219028;28;20244;-60
2022/06/09 05:30:37;;;;;;;2.78;2.47;;;14.90;99.90;;;15.72;98.99;97571.44;5217273;28;20225;-60
2022/06/09 05:33:11;;;;;;;3.75;2.85;;;14.90;99.90;;;15.80;97.37;97570.81;5219861;28;20252;-60
2022/06/09 05:35:44;;;;;;;2.80;2.60;;;14.90;99.90;;;15.75;98.27;97580.97;5211030;28;20201;-60
2022/06/09 05:47:02;;;;;;;3.80;3.05;;;14.80;99.90;;;15.60;98.38;97585.59;5207614;28;20201;-60
2022/06/09 05:49:35;;;;;;;4.18;3.05;;;14.80;99.90;;;15.66;97.59;97591.81;5212302;28;20286;-60
2022/06/09 05:52:08;;;;;;;3.50;2.67;;;14.90;99.90;;;15.68;98.00;97590.22;5210812;28;20193;-61
2022/06/09 05:54:42;;;;;;;5.97;3.00;;;15.00;99.90;;;15.72;98.51;97592.06;5215036;28;20241;-60
2022/06/09 05:57:16;;;;;;;3.00;2.80;;;15.00;99.90;;;15.78;98.75;97593.94;5210305;28;20366;-60
2022/06/09 05:59:50;;;;;;;4.63;3.33;;;15.00;99.90;;;15.85;97.15;97597.59;5209636;28;20225;-60
2022/06/09 06:02:26;;;;;;;4.22;2.92;;;15.10;99.90;;;15.97;95.36;97613.47;5211584;28;20663;-60
2022/06/09 06:05:00;;;;;;;3.30;3.00;;;15.10;99.90;;;15.92;94.79;97612.44;5214451;28;20212;-60
2022/06/09 06:07:33;;;;;;;3.13;2.78;;;15.10;99.90;;;16.05;94.87;97612.00;5220280;28;20256;-60
2022/06/09 06:10:07;;;;;;;3.25;3.05;;;15.20;99.90;;;16.15;94.45;97611.47;5218044;28;20201;-60
2022/06/09 06:12:41;;;;;;;4.78;3.88;;;15.30;99.90;;;16.16;90.92;97614.91;5220960;28;20770;-61
2022/06/09 06:15:14;;;;;;;4.15;3.85;;;15.40;99.90;;;16.26;91.32;97616.09;5221238;28;20747;-61
2022/06/09 06:17:47;;;;;;;4.65;3.70;;;15.40;99.90;;;16.48;91.96;97609.84;5212351;28;20305;-60
2022/06/09 06:20:20;;;;;;;4.57;3.28;;;15.60;99.90;;;16.75;91.05;97618.41;5217621;28;20204;-60
2022/06/09 06:22:55;;;;;;;4.57;3.05;;;15.80;99.90;;;17.06;90.05;97619.31;5218968;28;20646;-62
2022/06/09 06:25:28;;;;;;;5.97;3.00;;;16.10;99.90;;;17.29;87.53;97622.53;5222944;28;20247;-59
2022/06/09 06:28:03;;;;;;;5.38;3.20;;;16.40;99.90;;;17.55;87.25;97626.66;5224106;28;20279;-60
2022/06/09 06:30:36;;;;;;;5.30;3.00;;;16.60;99.90;;;17.76;85.92;97621.16;5217552;28;20754;-60
2022/06/09 06:33:09;;;;;;;3.95;2.58;;;16.70;99.90;;;17.93;82.95;97626.78;5211547;28;20247;-59
2022/06/09 06:35:42;;;;;;;3.03;2.60;;;16.90;99.90;;;18.10;82.79;97640.13;5213240;28;20631;-61
2022/06/09 06:38:16;;;;;;;3.35;2.60;;;17.00;99.90;;;18.35;81.67;97638.97;5214750;28;20221;-59
2022/06/09 06:40:50;;;;;;;3.00;2.30;;;17.30;99.90;;;18.51;77.79;97636.72;5214183;28;20254;-60
2022/06/09 06:43:25;;;;;;;3.15;2.35;;;17.30;99.90;;;18.69;78.61;97642.31;5213789;28;20212;-61
2022/06/09 06:45:58;;;;;;;5.47;2.40;;;17.60;99.90;;;19.44;76.16;97643.00;5219986;28;20201;-60
2022/06/09 06:48:32;;;;;;;3.80;2.38;;;18.20;99.90;;;19.86;72.55;97644.59;5218054;28;20621;-58
2022/06/09 06:51:06;;;;;;;5.47;2.20;;;18.40;99.90;;;20.22;71.29;97642.63;5215179;28;20599;-60
2022/06/09 06:53:40;;;;;;;3.45;2.03;;;18.80;99.90;;;20.92;69.75;97636.72;5211798;28;20211;-61
2022/06/09 06:56:13;;;;;;;3.33;2.10;;;19.40;99.90;;;21.43;65.42;97643.38;5215951;28;20292;-59
2022/06/09 06:58:47;;;;;;;3.45;1.67;;;20.00;99.90;;;21.64;63.15;97649.69;5214402;28;20263;-60
2022/06/09 07:01:21;;;;;;;2.22;1.52;;;20.10;99.90;;;21.61;63.71;97657.47;5213636;28;20275;-58
2022/06/09 07:03:55;;;;;;;4.10;2.10;;;20.00;99.90;;;21.49;63.61;97650.38;5213264;28;20578;-61
2022/06/09 07:06:28;;;;;;;1.83;1.60;;;19.70;99.90;;;20.83;64.26;97667.75;5212940;28;20196;-60
2022/06/09 07:09:01;;;;;;;2.35;2.10;;;19.00;99.90;;;20.37;66.62;97657.53;5213656;28;20689;-60
2022/06/09 07:11:34;;;;;;;4.75;2.00;;;18.60;99.90;;;20.24;65.51;97661.69;5218031;28;20193;-60
2022/06/09 07:14:09;;;;;;;4.05;1.95;;;18.50;99.90;;;19.99;65.58;97669.91;5211879;28;20286;-60
2022/06/09 07:16:42;;;;;;;2.67;1.95;;;18.10;99.90;;;19.88;66.54;97668.88;5214282;28;20192;-60
2022/06/09 07:19:19;;;;;;;2.40;1.83;;;18.10;99.90;;;20.36;67.18;97675.72;5210026;28;20648;-58
2022/06/09 07:21:52;;;;;;;3.08;1.98;;;18.90;99.90;;;20.86;64.87;97668.69;5213305;28;20224;-59
2022/06/09 07:24:32;;;;;;;4.53;1.95;;;19.40;99.90;;;20.83;63.91;97667.75;5212247;28;20279;-59
2022/06/09 07:27:06;;;;;;;1.95;1.60;;;19.30;99.90;;;20.44;65.46;97680.16;5209210;28;20289;-60
2022/06/09 07:29:40;;;;;;;3.72;1.95;;;19.00;99.90;;;20.25;64.07;97681.59;5217664;28;20287;-60
2022/06/09 07:32:14;;;;;;;2.67;1.80;;;18.60;99.90;;;19.76;66.54;97677.31;5219536;28;20250;-60
2022/06/09 07:34:47;;;;;;;3.20;1.80;;;18.30;99.90;;;19.49;67.28;97686.31;5212399;28;20212;-59
2022/06/09 07:37:20;;;;;;;3.28;1.95;;;18.10;99.90;;;19.85;66.88;97686.97;5219775;28;20307;-60
2022/06/09 07:39:53;;;;;;;2.63;1.85;;;18.50;99.90;;;20.01;65.45;97689.00;5219429;28;20241;-58
2022/06/09 07:42:27;;;;;;;2.90;1.92;;;18.70;99.90;;;19.82;65.76;97689.50;5216204;28;20698;-59
2022/06/09 07:45:02;;;;;;;3.35;1.80;;;18.60;99.90;;;20.34;66.18;97690.38;5214246;28;20197;-60
2022/06/09 07:47:35;;;;;;;5.78;1.75;;;19.20;99.90;;;20.68;62.00;97684.88;5213269;28;20222;-60
2022/06/09 07:50:10;;;;;;;4.55;1.67;;;19.60;99.90;;;20.90;61.02;97685.19;5214801;28;20229;-60
2022/06/09 07:52:49;;;;;;;2.97;1.60;;;19.60;99.90;;;21.19;60.91;97687.28;5214247;28;20620;-60
2022/06/09 07:55:24;;;;;;;3.38;2.00;;;20.00;99.90;;;21.35;59.25;97690.09;5213174;28;20668;-60
2022/06/09 07:57:57;;;;;;;3.33;1.70;;;20.10;99.90;;;21.46;58.46;97691.94;5216919;28;20216;-60
2022/06/09 08:00:32;;;;;;;3.38;1.70;;;20.20;99.90;;;21.55;59.06;97692.94;5212485;28;20244;-60
2022/06/09 08:03:05;;;;;;;3.47;2.03;;;20.00;99.90;;;21.16;59.59;97695.91;5211706;28;20278;-59
2022/06/09 08:05:39;;;;;;;4.68;1.83;;;19.60;99.90;;;20.40;61.55;97703.44;5222722;28;20657;-59
2022/06/09 08:08:12;;;;;;;4.10;2.03;;;19.10;99.90;;;19.83;63.50;97706.81;5216108;28;20222;-59
2022/06/09 08:10:45;;;;;;;4.63;2.17;;;18.70;99.90;;;19.63;63.35;97706.41;5214735;28;20280;-60
2022/06/09 08:13:19;;;;;;;3.75;2.20;;;18.30;99.90;;;19.05;65.03;97701.81;5216165;28;20275;-58
2022/06/09 08:15:53;;;;;;;3.95;2.40;;;17.90;99.90;;;18.88;66.01;97706.63;5216392;28;20198;-57
2022/06/09 08:18:27;;;;;;;5.13;2.50;;;17.70;99.90;;;18.73;66.95;97708.00;5217810;28;20306;-59
2022/06/09 08:21:00;;;;;;;5.30;2.90;;;17.60;99.90;;;18.76;67.18;97714.13;5217838;28;20895;-58
2022/06/09 08:23:52;;;;;;;6.28;2.63;;;17.50;99.90;;;18.61;67.98;97713.78;5216902;28;20217;-58
2022/06/09 08:26:26;;;;;;;4.10;3.00;;;17.40;99.90;;;18.40;69.54;97719.31;5214580;28;20209;-58
2022/06/09 08:28:59;;;;;;;5.55;2.83;;;17.40;99.90;;;18.62;70.54;97710.31;5216502;28;20307;-59
2022/06/09 08:31:33;;;;;;;3.53;2.13;;;17.70;99.90;;;19.45;68.98;97701.75;5211476;28;20321;-59
2022/06/09 08:34:07;;;;;;;2.75;1.73;;;18.60;99.90;;;20.32;65.14;97699.88;5222997;28;20231;-59
2022/06/09 08:36:40;;;;;;;2.28;1.90;;;19.60;99.90;;;20.88;60.92;97703.34;5215622;28;20205;-59
2022/06/09 08:39:13;;;;;;;5.10;2.00;;;20.40;99.90;;;21.32;60.09;97702.19;5216149;28;20249;-59
2022/06/09 08:42:00;;;;;;;3.58;2.00;;;20.90;99.90;;;21.62;58.53;97713.81;5209726;28;20228;-60
2022/06/09 08:44:38;;;;;;;5.90;2.55;;;20.90;99.90;;;21.29;58.64;97718.63;5215131;28;20610;-59
2022/06/09 08:47:22;;;;;;;3.67;2.00;;;20.40;99.90;;;20.98;58.52;97712.16;5215336;28;20226;-58
2022/06/09 08:50:10;;;;;;;5.25;1.90;;;20.00;99.90;;;20.62;58.33;97715.94;5212786;28;20200;-59
2022/06/09 08:52:50;;;;;;;5.60;2.50;;;19.50;99.90;;;20.60;59.11;97727.16;5216504;28;20220;-59
2022/06/09 08:55:36;;;;;;;3.80;1.90;;;19.70;99.90;;;21.21;58.21;97724.59;5214925;28;20194;-59
2022/06/09 08:58:20;;;;;;;6.43;2.05;;;20.40;99.90;;;21.23;55.05;97728.06;5213823;28;20268;-60
2022/06/09 09:01:04;;;;;;;4.78;1.70;;;20.50;99.70;;;20.97;54.73;97728.56;5213810;28;20252;-58
2022/06/09 09:03:44;;;;;;;5.57;1.80;;;20.10;99.60;;;20.95;55.52;97722.50;5224883;28;20237;-57
2022/06/09 09:06:25;;;;;;;6.18;2.03;;;20.20;99.70;;;21.54;56.01;97725.00;5216275;28;20212;-58
2022/06/09 09:09:08;;;;;;;3.30;1.75;;;20.90;99.90;;;22.08;53.48;97719.50;5224485;28;20262;-56
2022/06/09 09:11:53;;;;;;;4.18;1.70;;;21.40;98.50;;;22.29;54.29;97709.31;5224336;28;20205;-58
2022/06/09 09:14:31;;;;;;;5.30;2.03;;;21.50;98.50;;;22.23;54.10;97723.16;5223874;28;20209;-58
2022/06/09 09:17:23;;;;;;;3.60;1.90;;;21.30;99.20;;;21.91;53.55;97719.31;5225057;28;20243;-58
2022/06/09 09:20:04;;;;;;;4.53;2.38;;;21.10;98.90;;;21.74;53.34;97725.22;5221664;28;20634;-58
2022/06/09 09:22:51;;;;;;;3.10;1.75;;;20.70;98.60;;;21.44;54.21;97723.16;5226437;28;20629;-58
2022/06/09 09:25:31;;;;;;;2.47;1.55;;;20.40;99.00;;;21.22;54.35;97739.31;5225525;28;20711;-57
2022/06/09 09:28:16;;;;;;;3.58;1.90;;;20.10;99.10;;;21.03;54.59;97728.69;5227771;28;20259;-58
2022/06/09 09:31:00;;;;;;;5.30;1.90;;;20.20;99.00;;;21.05;54.85;97734.75;5218960;28;20193;-58
2022/06/09 09:33:34;;;;;;;3.92;1.55;;;20.30;98.60;;;21.27;54.28;97719.44;5220295;28;20197;-56
2022/06/09 09:36:26;;;;;;;3.50;1.85;;;20.50;98.30;;;21.42;54.19;97732.66;5228022;28;20193;-59
2022/06/09 09:39:13;;;;;;;4.15;1.60;;;20.60;98.80;;;21.31;54.11;97744.63;5221416;28;20308;-58
2022/06/09 09:41:47;;;;;;;5.05;1.83;;;20.40;98.50;;;21.25;54.47;97760.16;5227539;28;20186;-59
2022/06/09 09:44:23;;;;;;;3.15;1.65;;;20.30;99.30;;;21.22;54.55;97754.91;5226097;28;20585;-58
2022/06/09 09:46:59;;;;;;;3.22;1.90;;;20.20;99.00;;;21.05;53.21;97747.75;5227994;28;20239;-54
2022/06/09 09:49:36;;;;;;;3.17;1.70;;;20.10;98.00;;;21.28;52.48;97748.06;5223015;28;20201;-53
2022/06/09 09:52:38;;;;;;;3.50;1.70;;;20.50;97.40;;;21.56;51.99;97759.72;5227379;28;20227;-52
2022/06/09 09:55:37;;;;;;;5.07;1.85;;;20.80;96.90;;;21.42;51.15;97756.06;5215190;28;20196;-54
2022/06/09 09:58:33;;;;;;;3.70;1.73;;;20.50;96.70;;;21.32;52.43;97760.25;5223082;28;20220;-51
2022/06/09 10:01:32;;;;;;;3.75;1.92;;;20.30;97.70;;;21.01;54.43;97758.09;5222501;28;20639;-53
2022/06/09 10:10:56;;;;;;;3.58;1.70;;;20.10;99.30;;;21.15;51.08;97754.84;5218226;28;20284;-55
2022/06/09 10:13:33;;;;;;;2.88;1.70;;;20.30;96.40;;;21.01;50.79;97761.56;5226890;28;20205;-59
2022/06/09 10:16:24;;;;;;;3.97;1.80;;;20.20;96.00;;;20.90;54.05;97757.94;5221522;28;20209;-54
2022/06/09 10:19:19;;;;;;;2.85;1.70;;;20.00;98.10;;;20.97;54.09;97761.50;5225872;28;20229;-51
2022/06/09 10:22:20;;;;;;;2.80;1.90;;;19.90;98.40;;;20.93;53.91;97766.66;5226637;28;20198;-52
2022/06/09 10:25:01;;;;;;;2.75;1.65;;;19.90;98.40;;;21.06;54.52;97759.00;5218612;28;20311;-51
2022/06/09 10:27:37;;;;;;;3.35;1.80;;;20.10;98.70;;;21.54;54.16;97752.75;5226674;28;20243;-55
2022/06/09 10:30:18;;;;;;;3.60;1.92;;;20.60;98.80;;;21.80;52.60;97755.63;5222432;28;20582;-52
2022/06/09 10:32:58;;;;;;;3.25;1.70;;;21.00;97.10;;;21.94;53.67;97748.84;5215515;28;20237;-52
2022/06/09 10:35:45;;;;;;;3.03;1.80;;;21.30;97.30;;;22.11;51.22;97750.75;5221508;28;20217;-51
2022/06/09 10:38:29;;;;;;;2.38;1.70;;;21.40;96.30;;;22.21;51.06;97750.03;5221633;28;20213;-54
2022/06/09 10:41:11;;;;;;;2.88;1.77;;;21.50;96.30;;;22.37;50.27;97746.69;5224404;28;20660;-51
2022/06/09 10:43:52;;;;;;;2.92;1.73;;;21.60;96.10;;;22.58;48.99;97742.53;5217925;28;20256;-55
2022/06/09 10:46:32;;;;;;;4.25;1.88;;;21.90;94.80;;;22.63;48.72;97746.03;5222810;28;20206;-53
2022/06/09 10:55:24;;;;;;;5.28;1.60;;;22.00;94.40;;;22.59;49.85;97755.56;5218160;28;20715;-51
2022/06/09 10:58:16;;;;;;;5.95;2.05;;;21.90;95.40;;;22.54;49.80;97756.38;5219775;28;20213;-50
2022/06/09 11:00:52;;;;;;;3.20;1.70;;;21.60;95.30;;;22.37;48.56;97754.50;5218796;28;20228;-50
2022/06/09 11:03:30;;;;;;;2.95;1.60;;;21.40;94.80;;;22.18;48.96;97752.59;5225793;28;20304;-55
2022/06/09 11:06:20;;;;;;;2.20;1.58;;;21.30;94.90;;;22.10;49.20;97756.84;5222850;28;20220;-51
2022/06/09 11:09:06;;;;;;;2.25;1.55;;;21.30;95.00;;;21.99;49.48;97767.13;5219442;28;20905;-54
2022/06/09 11:11:50;;;;;;;2.47;1.45;;;21.30;94.90;;;21.99;46.99;97756.72;5225461;28;20208;-53
2022/06/09 11:14:48;;;;;;;5.10;1.73;;;21.30;93.00;;;22.00;48.29;97763.66;5222896;28;20255;-54
2022/06/09 11:17:37;;;;;;;1.88;1.55;;;21.30;94.10;;;22.00;49.02;97758.44;5222661;28;20290;-54
2022/06/09 11:20:24;;;;;;;5.22;1.75;;;21.40;94.00;;;22.12;49.28;97747.28;5224349;28;20209;-55